sensor_id;sensor_type;location;lat;lon;timestamp;pressure;altitude;pressure_sealevel;temperature;humidity
17593;BME280;8915;51.760;14.300;2023-05-13T00:00:29;101346.88;;;12.65;52.49
17593;BME280;8915;51.760;14.300;2023-05-13T00:02:56;101353.91;;;12.61;52.65
17593;BME280;8915;51.760;14.300;2023-05-13T00:05:22;101347.38;;;12.59;52.67
17593;BME280;8915;51.760;14.300;2023-05-13T00:07:48;101348.78;;;12.56;53.10
17593;BME280;8915;51.760;14.300;2023-05-13T00:10:15;101341.00;;;12.51;52.49
17593;BME280;8915;51.760;14.300;2023-05-13T00:12:42;101341.19;;;12.46;52.98
17593;BME280;8915;51.760;14.300;2023-05-13T00:15:09;101340.28;;;12.42;52.44
17593;BME280;8915;51.760;14.300;2023-05-13T00:17:36;101334.06;;;12.38;53.29
17593;BME280;8915;51.760;14.300;2023-05-13T00:20:03;101340.31;;;12.34;52.53
17593;BME280;8915;51.760;14.300;2023-05-13T00:22:30;101340.50;;;12.29;52.98
17593;BME280;8915;51.760;14.300;2023-05-13T00:24:57;101336.91;;;12.25;53.11
17593;BME280;8915;51.760;14.300;2023-05-13T00:27:23;101343.63;;;12.22;53.29
17593;BME280;8915;51.760;14.300;2023-05-13T00:29:51;101345.38;;;12.18;53.44
17593;BME280;8915;51.760;14.300;2023-05-13T00:32:17;101348.34;;;12.17;53.27
17593;BME280;8915;51.760;14.300;2023-05-13T00:34:44;101347.84;;;12.15;53.81
17593;BME280;8915;51.760;14.300;2023-05-13T00:37:11;101349.25;;;12.12;53.58
17593;BME280;8915;51.760;14.300;2023-05-13T00:39:38;101345.72;;;12.08;52.98
17593;BME280;8915;51.760;14.300;2023-05-13T00:42:04;101347.13;;;12.06;53.33
17593;BME280;8915;51.760;14.300;2023-05-13T00:44:31;101347.00;;;12.02;54.00
17593;BME280;8915;51.760;14.300;2023-05-13T00:47:00;101342.63;;;11.98;53.79
17593;BME280;8915;51.760;14.300;2023-05-13T00:49:26;101350.41;;;11.94;53.74
17593;BME280;8915;51.760;14.300;2023-05-13T00:51:53;101351.03;;;11.91;53.50
17593;BME280;8915;51.760;14.300;2023-05-13T00:57:30;101358.25;;;11.82;53.65
17593;BME280;8915;51.760;14.300;2023-05-13T00:59:56;101361.50;;;11.79;53.29
17593;BME280;8915;51.760;14.300;2023-05-13T01:02:28;101365.56;;;11.77;53.87
17593;BME280;8915;51.760;14.300;2023-05-13T01:05:02;101361.97;;;11.73;54.74
17593;BME280;8915;51.760;14.300;2023-05-13T01:07:43;101356.53;;;11.69;54.70
17593;BME280;8915;51.760;14.300;2023-05-13T01:10:20;101366.66;;;11.67;54.62
17593;BME280;8915;51.760;14.300;2023-05-13T01:12:52;101369.91;;;11.64;54.02
17593;BME280;8915;51.760;14.300;2023-05-13T01:15:24;101372.88;;;11.63;54.10
17593;BME280;8915;51.760;14.300;2023-05-13T01:17:56;101379.56;;;11.60;54.19
17593;BME280;8915;51.760;14.300;2023-05-13T01:20:26;101374.09;;;11.57;54.23
17593;BME280;8915;51.760;14.300;2023-05-13T01:22:54;101378.94;;;11.55;54.33
17593;BME280;8915;51.760;14.300;2023-05-13T01:25:22;101384.53;;;11.53;55.13
17593;BME280;8915;51.760;14.300;2023-05-13T01:27:50;101379.09;;;11.50;55.48
17593;BME280;8915;51.760;14.300;2023-05-13T01:30:17;101386.88;;;11.46;54.93
17593;BME280;8915;51.760;14.300;2023-05-13T01:32:44;101382.97;;;11.44;55.10
17593;BME280;8915;51.760;14.300;2023-05-13T01:35:11;101389.66;;;11.41;54.51
17593;BME280;8915;51.760;14.300;2023-05-13T01:37:42;101386.88;;;11.38;54.03
17593;BME280;8915;51.760;14.300;2023-05-13T01:40:11;101393.88;;;11.34;55.43
17593;BME280;8915;51.760;14.300;2023-05-13T01:42:38;101389.19;;;11.31;56.35
17593;BME280;8915;51.760;14.300;2023-05-13T01:45:06;101390.13;;;11.26;55.08
17593;BME280;8915;51.760;14.300;2023-05-13T01:47:32;101390.72;;;11.23;54.24
17593;BME280;8915;51.760;14.300;2023-05-13T01:49:59;101392.44;;;11.19;55.14
17593;BME280;8915;51.760;14.300;2023-05-13T01:52:27;101395.22;;;11.14;56.93
17593;BME280;8915;51.760;14.300;2023-05-13T01:54:53;101401.13;;;11.11;55.52
17593;BME280;8915;51.760;14.300;2023-05-13T01:57:21;101402.06;;;11.07;55.29
17593;BME280;8915;51.760;14.300;2023-05-13T01:59:47;101401.13;;;11.03;54.94
17593;BME280;8915;51.760;14.300;2023-05-13T02:02:14;101407.03;;;11.00;55.82
17593;BME280;8915;51.760;14.300;2023-05-13T02:04:40;101405.78;;;10.97;55.16
17593;BME280;8915;51.760;14.300;2023-05-13T02:07:06;101407.16;;;10.95;56.05
17593;BME280;8915;51.760;14.300;2023-05-13T02:09:33;101403.56;;;10.91;55.67
17593;BME280;8915;51.760;14.300;2023-05-13T02:11:59;101404.97;;;10.88;56.83
17593;BME280;8915;51.760;14.300;2023-05-13T02:14:28;101398.75;;;10.84;55.80
17593;BME280;8915;51.760;14.300;2023-05-13T02:16:55;101405.13;;;10.83;55.22
17593;BME280;8915;51.760;14.300;2023-05-13T02:19:21;101398.91;;;10.79;56.05
17593;BME280;8915;51.760;14.300;2023-05-13T02:21:48;101407.13;;;10.78;57.34
17593;BME280;8915;51.760;14.300;2023-05-13T02:24:15;101402.94;;;10.77;56.80
17593;BME280;8915;51.760;14.300;2023-05-13T02:26:41;101404.63;;;10.73;57.46
17593;BME280;8915;51.760;14.300;2023-05-13T02:29:09;101402.56;;;10.70;56.08
17593;BME280;8915;51.760;14.300;2023-05-13T02:31:37;101401.66;;;10.66;56.39
17593;BME280;8915;51.760;14.300;2023-05-13T02:34:03;101397.75;;;10.63;57.11
17593;BME280;8915;51.760;14.300;2023-05-13T02:36:29;101405.81;;;10.58;56.73
17593;BME280;8915;51.760;14.300;2023-05-13T02:38:56;101409.06;;;10.55;56.31
17593;BME280;8915;51.760;14.300;2023-05-13T02:41:23;101396.47;;;10.52;57.38
17593;BME280;8915;51.760;14.300;2023-05-13T02:43:49;101397.88;;;10.50;56.92
17593;BME280;8915;51.760;14.300;2023-05-13T02:46:16;101403.75;;;10.47;56.68
17593;BME280;8915;51.760;14.300;2023-05-13T02:48:45;101406.22;;;10.43;56.83
17593;BME280;8915;51.760;14.300;2023-05-13T02:51:11;101402.63;;;10.39;57.22
17593;BME280;8915;51.760;14.300;2023-05-13T02:53:38;101410.06;;;10.37;56.92
17593;BME280;8915;51.760;14.300;2023-05-13T02:56:06;101405.22;;;10.31;56.91
17593;BME280;8915;51.760;14.300;2023-05-13T02:58:34;101408.00;;;10.26;58.51
17593;BME280;8915;51.760;14.300;2023-05-13T03:01:01;101416.81;;;10.21;57.25
17593;BME280;8915;51.760;14.300;2023-05-13T03:03:27;101415.38;;;10.15;57.11
17593;BME280;8915;51.760;14.300;2023-05-13T03:05:55;101409.44;;;10.10;57.34
17593;BME280;8915;51.760;14.300;2023-05-13T03:08:22;101418.25;;;10.05;58.21
17593;BME280;8915;51.760;14.300;2023-05-13T03:10:49;101413.06;;;10.00;58.27
17593;BME280;8915;51.760;14.300;2023-05-13T03:13:16;101412.44;;;9.95;58.22
17593;BME280;8915;51.760;14.300;2023-05-13T03:15:42;101418.63;;;9.90;58.85
17593;BME280;8915;51.760;14.300;2023-05-13T03:18:09;101430.03;;;9.86;59.08
17593;BME280;8915;51.760;14.300;2023-05-13T03:20:35;101422.53;;;9.79;58.77
17593;BME280;8915;51.760;14.300;2023-05-13T03:23:04;101424.53;;;9.74;59.73
17593;BME280;8915;51.760;14.300;2023-05-13T03:25:31;101428.84;;;9.70;59.92
17593;BME280;8915;51.760;14.300;2023-05-13T03:27:58;101428.66;;;9.66;58.85
17593;BME280;8915;51.760;14.300;2023-05-13T03:30:28;101432.19;;;9.62;58.49
17593;BME280;8915;51.760;14.300;2023-05-13T03:33:01;101424.09;;;9.58;59.40
17593;BME280;8915;51.760;14.300;2023-05-13T03:35:27;101429.19;;;9.55;60.15
17593;BME280;8915;51.760;14.300;2023-05-13T03:37:54;101427.91;;;9.52;59.28
17593;BME280;8915;51.760;14.300;2023-05-13T03:40:22;101430.38;;;9.49;60.06
17593;BME280;8915;51.760;14.300;2023-05-13T03:42:49;101431.75;;;9.46;60.09
17593;BME280;8915;51.760;14.300;2023-05-13T03:45:17;101430.47;;;9.44;59.84
17593;BME280;8915;51.760;14.300;2023-05-13T03:47:48;101436.03;;;9.42;59.81
17593;BME280;8915;51.760;14.300;2023-05-13T03:50:16;101438.97;;;9.41;60.67
17593;BME280;8915;51.760;14.300;2023-05-13T03:52:43;101430.59;;;9.39;59.69
17593;BME280;8915;51.760;14.300;2023-05-13T03:55:10;101441.41;;;9.37;59.98
17593;BME280;8915;51.760;14.300;2023-05-13T03:57:40;101435.69;;;9.35;60.73
17593;BME280;8915;51.760;14.300;2023-05-13T04:00:10;101439.06;;;9.36;60.82
17593;BME280;8915;51.760;14.300;2023-05-13T04:02:42;101433.81;;;9.36;60.38
17593;BME280;8915;51.760;14.300;2023-05-13T04:05:09;101442.22;;;9.38;59.71
17593;BME280;8915;51.760;14.300;2023-05-13T04:07:37;101439.28;;;9.39;60.63
17593;BME280;8915;51.760;14.300;2023-05-13T04:10:05;101445.81;;;9.42;60.94
17593;BME280;8915;51.760;14.300;2023-05-13T04:12:31;101446.19;;;9.49;61.76
17593;BME280;8915;51.760;14.300;2023-05-13T04:15:00;101445.59;;;9.52;59.83
17593;BME280;8915;51.760;14.300;2023-05-13T04:17:28;101457.09;;;9.56;59.67
17593;BME280;8915;51.760;14.300;2023-05-13T04:19:54;101455.94;;;9.62;60.16
17593;BME280;8915;51.760;14.300;2023-05-13T04:22:21;101452.09;;;9.68;58.96
17593;BME280;8915;51.760;14.300;2023-05-13T04:24:47;101452.47;;;9.75;59.64
17593;BME280;8915;51.760;14.300;2023-05-13T04:27:16;101455.94;;;9.84;58.87
17593;BME280;8915;51.760;14.300;2023-05-13T04:29:43;101457.09;;;9.91;59.71
17593;BME280;8915;51.760;14.300;2023-05-13T04:32:12;101457.91;;;10.00;59.72
17593;BME280;8915;51.760;14.300;2023-05-13T04:34:40;101462.22;;;10.10;59.93
17593;BME280;8915;51.760;14.300;2023-05-13T04:37:06;101462.56;;;10.17;58.58
17593;BME280;8915;51.760;14.300;2023-05-13T04:39:33;101454.72;;;10.25;58.57
17593;BME280;8915;51.760;14.300;2023-05-13T04:41:59;101452.13;;;10.34;58.48
17593;BME280;8915;51.760;14.300;2023-05-13T04:44:26;101452.19;;;10.42;58.28
17593;BME280;8915;51.760;14.300;2023-05-13T04:46:52;101451.13;;;10.52;57.57
17593;BME280;8915;51.760;14.300;2023-05-13T04:49:20;101455.38;;;10.61;58.36
17593;BME280;8915;51.760;14.300;2023-05-13T04:51:46;101450.91;;;10.70;57.29
17593;BME280;8915;51.760;14.300;2023-05-13T04:54:13;101461.22;;;10.80;58.62
17593;BME280;8915;51.760;14.300;2023-05-13T04:56:39;101456.75;;;10.89;57.48
17593;BME280;8915;51.760;14.300;2023-05-13T04:59:07;101454.88;;;10.98;57.98
17593;BME280;8915;51.760;14.300;2023-05-13T05:01:33;101460.22;;;11.07;57.70
17593;BME280;8915;51.760;14.300;2023-05-13T05:04:00;101454.63;;;11.17;57.46
17593;BME280;8915;51.760;14.300;2023-05-13T05:06:28;101454.66;;;11.25;56.38
17593;BME280;8915;51.760;14.300;2023-05-13T05:08:55;101455.44;;;11.34;56.07
17593;BME280;8915;51.760;14.300;2023-05-13T05:11:23;101464.19;;;11.43;56.12
17593;BME280;8915;51.760;14.300;2023-05-13T05:13:50;101457.78;;;11.53;55.93
17593;BME280;8915;51.760;14.300;2023-05-13T05:16:17;101471.09;;;11.61;55.85
17593;BME280;8915;51.760;14.300;2023-05-13T05:18:43;101468.44;;;11.70;55.76
17593;BME280;8915;51.760;14.300;2023-05-13T05:21:11;101473.72;;;11.78;54.90
17593;BME280;8915;51.760;14.300;2023-05-13T05:23:39;101477.16;;;11.87;55.29
17593;BME280;8915;51.760;14.300;2023-05-13T05:26:05;101484.63;;;11.94;54.92
17593;BME280;8915;51.760;14.300;2023-05-13T05:28:32;101484.28;;;12.04;55.04
17593;BME280;8915;51.760;14.300;2023-05-13T05:30:58;101501.28;;;12.11;54.19
17593;BME280;8915;51.760;14.300;2023-05-13T05:33:27;101488.34;;;12.18;54.03
17593;BME280;8915;51.760;14.300;2023-05-13T05:35:53;101486.78;;;12.26;53.89
17593;BME280;8915;51.760;14.300;2023-05-13T05:38:21;101489.72;;;12.33;53.57
17593;BME280;8915;51.760;14.300;2023-05-13T05:40:50;101491.25;;;12.42;53.79
17593;BME280;8915;51.760;14.300;2023-05-13T05:43:17;101488.56;;;12.51;53.69
17593;BME280;8915;51.760;14.300;2023-05-13T05:45:44;101497.16;;;12.56;53.21
17593;BME280;8915;51.760;14.300;2023-05-13T05:48:14;101494.47;;;12.65;53.03
17593;BME280;8915;51.760;14.300;2023-05-13T05:50:41;101502.69;;;12.72;53.36
17593;BME280;8915;51.760;14.300;2023-05-13T05:53:12;101498.47;;;12.79;52.71
17593;BME280;8915;51.760;14.300;2023-05-13T05:55:38;101500.31;;;12.87;52.37
17593;BME280;8915;51.760;14.300;2023-05-13T05:58:08;101498.72;;;12.95;52.78
17593;BME280;8915;51.760;14.300;2023-05-13T06:00:36;101494.97;;;13.04;52.60
17593;BME280;8915;51.760;14.300;2023-05-13T06:03:02;101489.97;;;13.11;52.11
17593;BME280;8915;51.760;14.300;2023-05-13T06:05:29;101488.38;;;13.19;51.64
17593;BME280;8915;51.760;14.300;2023-05-13T06:07:55;101493.47;;;13.24;51.66
17593;BME280;8915;51.760;14.300;2023-05-13T06:10:22;101490.31;;;13.30;51.14
17593;BME280;8915;51.760;14.300;2023-05-13T06:12:48;101496.66;;;13.38;51.27
17593;BME280;8915;51.760;14.300;2023-05-13T06:15:17;101493.50;;;13.44;50.89
17593;BME280;8915;51.760;14.300;2023-05-13T06:17:43;101495.66;;;13.51;51.19
17593;BME280;8915;51.760;14.300;2023-05-13T06:20:11;101493.56;;;13.56;51.04
17593;BME280;8915;51.760;14.300;2023-05-13T06:22:38;101494.94;;;13.62;50.36
17593;BME280;8915;51.760;14.300;2023-05-13T06:25:05;101485.69;;;13.68;50.83
17593;BME280;8915;51.760;14.300;2023-05-13T06:27:32;101490.81;;;13.73;50.30
17593;BME280;8915;51.760;14.300;2023-05-13T06:29:59;101492.16;;;13.79;50.17
17593;BME280;8915;51.760;14.300;2023-05-13T06:32:26;101501.16;;;13.87;50.17
17593;BME280;8915;51.760;14.300;2023-05-13T06:34:53;101497.66;;;13.95;50.12
17593;BME280;8915;51.760;14.300;2023-05-13T06:37:19;101501.81;;;14.04;49.32
17593;BME280;8915;51.760;14.300;2023-05-13T06:39:46;101495.63;;;14.12;48.62
17593;BME280;8915;51.760;14.300;2023-05-13T06:42:13;101495.09;;;14.19;48.00
17593;BME280;8915;51.760;14.300;2023-05-13T06:44:43;101500.69;;;14.26;48.45
17593;BME280;8915;51.760;14.300;2023-05-13T06:47:09;101494.41;;;14.30;48.23
17593;BME280;8915;51.760;14.300;2023-05-13T06:49:41;101498.53;;;14.40;48.64
17593;BME280;8915;51.760;14.300;2023-05-13T06:52:08;101496.44;;;14.45;48.89
17593;BME280;8915;51.760;14.300;2023-05-13T06:54:35;101499.31;;;14.52;47.89
17593;BME280;8915;51.760;14.300;2023-05-13T06:57:01;101504.22;;;14.62;48.35
17593;BME280;8915;51.760;14.300;2023-05-13T06:59:29;101502.69;;;14.73;48.03
17593;BME280;8915;51.760;14.300;2023-05-13T07:01:56;101501.38;;;14.79;48.04
17593;BME280;8915;51.760;14.300;2023-05-13T07:04:22;101495.50;;;14.86;48.26
17593;BME280;8915;51.760;14.300;2023-05-13T07:06:50;101510.56;;;14.94;47.99
17593;BME280;8915;51.760;14.300;2023-05-13T07:09:16;101498.16;;;14.98;47.34
17593;BME280;8915;51.760;14.300;2023-05-13T07:11:42;101502.94;;;15.04;47.81
17593;BME280;8915;51.760;14.300;2023-05-13T07:14:09;101493.28;;;15.12;47.92
17593;BME280;8915;51.760;14.300;2023-05-13T07:16:35;101505.81;;;15.23;46.52
17593;BME280;8915;51.760;14.300;2023-05-13T07:19:02;101503.69;;;15.29;47.06
17593;BME280;8915;51.760;14.300;2023-05-13T07:21:28;101497.53;;;15.37;46.26
17593;BME280;8915;51.760;14.300;2023-05-13T07:23:56;101493.63;;;15.46;46.04
17593;BME280;8915;51.760;14.300;2023-05-13T07:26:22;101491.16;;;15.53;45.60
17593;BME280;8915;51.760;14.300;2023-05-13T07:28:49;101494.81;;;15.61;45.36
17593;BME280;8915;51.760;14.300;2023-05-13T07:31:15;101503.44;;;15.70;46.47
17593;BME280;8915;51.760;14.300;2023-05-13T07:33:42;101495.22;;;15.75;46.30
17593;BME280;8915;51.760;14.300;2023-05-13T07:36:08;101490.88;;;15.82;45.79
17593;BME280;8915;51.760;14.300;2023-05-13T07:38:34;101499.50;;;15.91;46.40
17593;BME280;8915;51.760;14.300;2023-05-13T07:41:02;101491.69;;;15.98;46.08
17593;BME280;8915;51.760;14.300;2023-05-13T07:43:29;101485.88;;;16.08;45.33
17593;BME280;8915;51.760;14.300;2023-05-13T07:45:56;101486.84;;;16.16;45.20
17593;BME280;8915;51.760;14.300;2023-05-13T07:48:22;101486.03;;;16.27;45.72
17593;BME280;8915;51.760;14.300;2023-05-13T07:50:49;101487.31;;;16.33;44.67
17593;BME280;8915;51.760;14.300;2023-05-13T07:53:16;101485.31;;;16.42;44.70
17593;BME280;8915;51.760;14.300;2023-05-13T07:55:42;101477.81;;;16.48;44.19
17593;BME280;8915;51.760;14.300;2023-05-13T07:58:10;101486.75;;;16.55;44.79
17593;BME280;8915;51.760;14.300;2023-05-13T08:00:37;101475.50;;;16.62;44.38
17593;BME280;8915;51.760;14.300;2023-05-13T08:03:03;101490.13;;;16.68;44.33
17593;BME280;8915;51.760;14.300;2023-05-13T08:05:30;101475.06;;;16.75;43.46
17593;BME280;8915;51.760;14.300;2023-05-13T08:07:56;101477.16;;;16.82;43.65
17593;BME280;8915;51.760;14.300;2023-05-13T08:10:23;101476.53;;;16.88;43.08
17593;BME280;8915;51.760;14.300;2023-05-13T08:12:49;101481.25;;;16.95;43.23
17593;BME280;8915;51.760;14.300;2023-05-13T08:15:19;101484.88;;;17.02;42.61
17593;BME280;8915;51.760;14.300;2023-05-13T08:17:45;101479.25;;;17.07;42.52
17593;BME280;8915;51.760;14.300;2023-05-13T08:20:11;101484.00;;;17.14;42.48
17593;BME280;8915;51.760;14.300;2023-05-13T08:22:39;101477.25;;;17.20;42.09
17593;BME280;8915;51.760;14.300;2023-05-13T08:25:06;101475.94;;;17.29;42.72
17593;BME280;8915;51.760;14.300;2023-05-13T08:27:33;101466.97;;;17.37;41.83
17593;BME280;8915;51.760;14.300;2023-05-13T08:30:00;101469.81;;;17.44;41.16
17593;BME280;8915;51.760;14.300;2023-05-13T08:32:27;101476.78;;;17.49;40.44
17593;BME280;8915;51.760;14.300;2023-05-13T08:34:54;101472.38;;;17.56;41.75
17593;BME280;8915;51.760;14.300;2023-05-13T08:37:20;101469.91;;;17.67;41.82
17593;BME280;8915;51.760;14.300;2023-05-13T08:39:47;101473.84;;;17.73;40.62
17593;BME280;8915;51.760;14.300;2023-05-13T08:42:14;101466.06;;;17.83;39.88
17593;BME280;8915;51.760;14.300;2023-05-13T08:44:43;101455.16;;;17.92;41.78
17593;BME280;8915;51.760;14.300;2023-05-13T08:47:15;101457.25;;;18.02;41.88
17593;BME280;8915;51.760;14.300;2023-05-13T08:49:49;101458.63;;;18.15;41.33
17593;BME280;8915;51.760;14.300;2023-05-13T08:52:17;101458.81;;;18.25;40.55
17593;BME280;8915;51.760;14.300;2023-05-13T08:54:44;101459.75;;;18.33;40.44
17593;BME280;8915;51.760;14.300;2023-05-13T08:57:11;101456.44;;;18.39;39.43
17593;BME280;8915;51.760;14.300;2023-05-13T08:59:37;101455.06;;;18.49;39.62
17593;BME280;8915;51.760;14.300;2023-05-13T09:02:04;101457.94;;;18.59;39.43
17593;BME280;8915;51.760;14.300;2023-05-13T09:04:31;101456.53;;;18.69;37.51
17593;BME280;8915;51.760;14.300;2023-05-13T09:07:00;101457.06;;;18.78;39.67
17593;BME280;8915;51.760;14.300;2023-05-13T09:09:26;101453.78;;;18.88;38.59
17593;BME280;8915;51.760;14.300;2023-05-13T09:11:53;101446.63;;;18.95;39.21
17593;BME280;8915;51.760;14.300;2023-05-13T09:14:19;101454.75;;;19.02;38.68
17593;BME280;8915;51.760;14.300;2023-05-13T09:16:46;101452.97;;;19.10;38.81
17593;BME280;8915;51.760;14.300;2023-05-13T09:19:13;101447.69;;;19.17;36.24
17593;BME280;8915;51.760;14.300;2023-05-13T09:21:39;101447.41;;;19.22;37.30
17593;BME280;8915;51.760;14.300;2023-05-13T09:24:08;101447.13;;;19.30;36.28
17593;BME280;8915;51.760;14.300;2023-05-13T09:26:36;101443.00;;;19.36;35.95
17593;BME280;8915;51.760;14.300;2023-05-13T09:29:16;101438.91;;;19.42;34.52
17593;BME280;8915;51.760;14.300;2023-05-13T09:31:43;101437.13;;;19.53;34.82
17593;BME280;8915;51.760;14.300;2023-05-13T09:34:10;101443.72;;;19.63;35.36
17593;BME280;8915;51.760;14.300;2023-05-13T09:36:37;101441.91;;;19.70;34.04
17593;BME280;8915;51.760;14.300;2023-05-13T09:39:04;101441.97;;;19.77;33.88
17593;BME280;8915;51.760;14.300;2023-05-13T09:41:32;101443.59;;;19.82;34.48
17593;BME280;8915;51.760;14.300;2023-05-13T09:44:01;101441.31;;;19.87;32.89
17593;BME280;8915;51.760;14.300;2023-05-13T09:46:29;101437.97;;;19.94;32.41
17593;BME280;8915;51.760;14.300;2023-05-13T09:48:56;101442.63;;;20.00;32.17
17593;BME280;8915;51.760;14.300;2023-05-13T09:51:24;101438.47;;;20.06;32.51
17593;BME280;8915;51.760;14.300;2023-05-13T09:53:52;101440.13;;;20.14;32.93
17593;BME280;8915;51.760;14.300;2023-05-13T09:56:19;101441.72;;;20.22;32.61
17593;BME280;8915;51.760;14.300;2023-05-13T09:58:51;101426.47;;;20.30;33.22
17593;BME280;8915;51.760;14.300;2023-05-13T10:01:18;101423.13;;;20.43;32.28
17593;BME280;8915;51.760;14.300;2023-05-13T10:03:45;101430.03;;;20.44;31.32
17593;BME280;8915;51.760;14.300;2023-05-13T10:06:13;101432.00;;;20.51;29.93
17593;BME280;8915;51.760;14.300;2023-05-13T10:08:42;101432.81;;;20.55;31.18
17593;BME280;8915;51.760;14.300;2023-05-13T10:11:09;101429.41;;;20.61;30.57
17593;BME280;8915;51.760;14.300;2023-05-13T10:13:39;101428.31;;;20.69;30.67
17593;BME280;8915;51.760;14.300;2023-05-13T10:16:08;101435.28;;;20.74;31.55
17593;BME280;8915;51.760;14.300;2023-05-13T10:18:35;101435.28;;;20.77;31.75
17593;BME280;8915;51.760;14.300;2023-05-13T10:21:02;101428.41;;;20.80;28.88
17593;BME280;8915;51.760;14.300;2023-05-13T10:23:32;101422.25;;;20.79;30.82
17593;BME280;8915;51.760;14.300;2023-05-13T10:25:59;101422.69;;;20.85;31.42
17593;BME280;8915;51.760;14.300;2023-05-13T10:28:26;101434.22;;;20.89;31.45
17593;BME280;8915;51.760;14.300;2023-05-13T10:30:53;101426.97;;;20.93;31.11
17593;BME280;8915;51.760;14.300;2023-05-13T10:33:21;101415.13;;;20.97;31.27
17593;BME280;8915;51.760;14.300;2023-05-13T10:35:59;101422.44;;;21.04;31.26
17593;BME280;8915;51.760;14.300;2023-05-13T10:38:37;101428.22;;;21.09;31.21
17593;BME280;8915;51.760;14.300;2023-05-13T10:41:10;101413.28;;;21.15;31.07
17593;BME280;8915;51.760;14.300;2023-05-13T10:43:39;101412.16;;;21.20;31.10
17593;BME280;8915;51.760;14.300;2023-05-13T10:46:10;101414.13;;;21.26;32.26
17593;BME280;8915;51.760;14.300;2023-05-13T10:48:40;101411.47;;;21.33;31.22
17593;BME280;8915;51.760;14.300;2023-05-13T10:51:08;101411.50;;;21.40;31.22
17593;BME280;8915;51.760;14.300;2023-05-13T10:53:37;101406.50;;;21.46;31.54
17593;BME280;8915;51.760;14.300;2023-05-13T10:56:08;101411.16;;;21.52;31.17
17593;BME280;8915;51.760;14.300;2023-05-13T10:58:35;101408.09;;;21.54;30.06
17593;BME280;8915;51.760;14.300;2023-05-13T11:01:13;101404.66;;;21.60;31.08
17593;BME280;8915;51.760;14.300;2023-05-13T11:03:43;101409.34;;;21.70;31.13
17593;BME280;8915;51.760;14.300;2023-05-13T11:06:17;101407.41;;;21.74;31.23
17593;BME280;8915;51.760;14.300;2023-05-13T11:08:45;101400.50;;;21.77;31.26
17593;BME280;8915;51.760;14.300;2023-05-13T11:11:24;101409.72;;;21.79;31.04
17593;BME280;8915;51.760;14.300;2023-05-13T11:13:52;101403.22;;;21.84;31.25
17593;BME280;8915;51.760;14.300;2023-05-13T11:16:19;101405.91;;;21.80;30.38
17593;BME280;8915;51.760;14.300;2023-05-13T11:18:47;101408.59;;;21.84;31.42
17593;BME280;8915;51.760;14.300;2023-05-13T11:21:15;101408.22;;;21.85;30.66
17593;BME280;8915;51.760;14.300;2023-05-13T11:23:52;101406.28;;;21.75;31.01
17593;BME280;8915;51.760;14.300;2023-05-13T11:26:21;101407.41;;;21.74;30.07
17593;BME280;8915;51.760;14.300;2023-05-13T11:28:58;101411.66;;;21.79;30.00
17593;BME280;8915;51.760;14.300;2023-05-13T11:31:26;101403.97;;;21.77;30.95
17593;BME280;8915;51.760;14.300;2023-05-13T11:34:09;101405.50;;;21.82;32.52
17593;BME280;8915;51.760;14.300;2023-05-13T11:36:37;101408.97;;;21.89;31.59
17593;BME280;8915;51.760;14.300;2023-05-13T11:39:08;101409.75;;;21.93;30.80
17593;BME280;8915;51.760;14.300;2023-05-13T11:41:37;101408.59;;;21.87;30.14
17593;BME280;8915;51.760;14.300;2023-05-13T11:44:04;101407.06;;;21.83;31.52
17593;BME280;8915;51.760;14.300;2023-05-13T11:46:31;101405.91;;;21.80;30.91
17593;BME280;8915;51.760;14.300;2023-05-13T11:48:57;101400.13;;;21.78;31.25
17593;BME280;8915;51.760;14.300;2023-05-13T11:51:25;101402.81;;;21.78;30.95
17593;BME280;8915;51.760;14.300;2023-05-13T11:53:58;101405.91;;;21.80;30.36
17593;BME280;8915;51.760;14.300;2023-05-13T11:56:25;101403.97;;;21.77;30.78
17593;BME280;8915;51.760;14.300;2023-05-13T11:58:52;101403.59;;;21.75;30.66
17593;BME280;8915;51.760;14.300;2023-05-13T12:01:19;101398.22;;;21.75;32.06
17593;BME280;8915;51.760;14.300;2023-05-13T12:03:46;101402.06;;;21.85;31.77
17593;BME280;8915;51.760;14.300;2023-05-13T12:06:12;101403.22;;;21.87;30.86
17593;BME280;8915;51.760;14.300;2023-05-13T12:08:43;101402.84;;;21.85;31.31
17593;BME280;8915;51.760;14.300;2023-05-13T12:11:10;101403.59;;;21.82;31.57
17593;BME280;8915;51.760;14.300;2023-05-13T12:13:38;101407.44;;;21.81;31.63
17593;BME280;8915;51.760;14.300;2023-05-13T12:16:06;101408.59;;;21.80;32.13
17593;BME280;8915;51.760;14.300;2023-05-13T12:18:33;101408.56;;;21.77;32.12
17593;BME280;8915;51.760;14.300;2023-05-13T12:20:59;101408.94;;;21.72;33.19
17593;BME280;8915;51.760;14.300;2023-05-13T12:23:37;101418.16;;;21.71;33.10
17593;BME280;8915;51.760;14.300;2023-05-13T12:26:07;101421.63;;;21.68;33.16
17593;BME280;8915;51.760;14.300;2023-05-13T12:28:33;101422.31;;;21.61;32.76
17593;BME280;8915;51.760;14.300;2023-05-13T12:31:01;101420.38;;;21.58;33.18
17593;BME280;8915;51.760;14.300;2023-05-13T12:33:29;101423.44;;;21.53;33.63
17593;BME280;8915;51.760;14.300;2023-05-13T12:36:14;101417.31;;;21.49;33.90
17593;BME280;8915;51.760;14.300;2023-05-13T12:38:53;101428.78;;;21.46;33.85
17593;BME280;8915;51.760;14.300;2023-05-13T12:41:21;101429.16;;;21.45;34.90
17593;BME280;8915;51.760;14.300;2023-05-13T12:43:50;101421.50;;;21.47;34.56
17593;BME280;8915;51.760;14.300;2023-05-13T12:46:17;101417.69;;;21.51;34.13
17593;BME280;8915;51.760;14.300;2023-05-13T12:48:43;101424.59;;;21.56;35.14
17593;BME280;8915;51.760;14.300;2023-05-13T12:51:09;101421.53;;;21.61;35.49
17593;BME280;8915;51.760;14.300;2023-05-13T12:53:36;101434.63;;;21.66;34.36
17593;BME280;8915;51.760;14.300;2023-05-13T12:56:02;101430.44;;;21.68;34.41